sensor_id;sensor_type;location;lat;lon;timestamp;temperature;humidity
32296;DHT22;18781;51.550;5.418;2023-06-04T00:01:06;17.30;41.40
32296;DHT22;18781;51.550;5.418;2023-06-04T00:03:32;17.20;41.50
32296;DHT22;18781;51.550;5.418;2023-06-04T00:05:58;17.20;41.80
32296;DHT22;18781;51.550;5.418;2023-06-04T00:08:23;17.20;41.90
32296;DHT22;18781;51.550;5.418;2023-06-04T00:10:49;17.20;42.00
32296;DHT22;18781;51.550;5.418;2023-06-04T00:13:15;17.10;42.10
32296;DHT22;18781;51.550;5.418;2023-06-04T00:15:41;17.10;42.30
32296;DHT22;18781;51.550;5.418;2023-06-04T00:18:07;17.10;42.50
32296;DHT22;18781;51.550;5.418;2023-06-04T00:20:32;17.10;42.40
32296;DHT22;18781;51.550;5.418;2023-06-04T00:22:58;17.10;42.50
32296;DHT22;18781;51.550;5.418;2023-06-04T00:25:23;17.10;42.80
32296;DHT22;18781;51.550;5.418;2023-06-04T00:27:49;17.10;43.00
32296;DHT22;18781;51.550;5.418;2023-06-04T00:30:15;17.00;42.80
32296;DHT22;18781;51.550;5.418;2023-06-04T00:32:40;17.00;42.80
32296;DHT22;18781;51.550;5.418;2023-06-04T00:35:06;17.00;43.10
32296;DHT22;18781;51.550;5.418;2023-06-04T00:37:32;17.00;43.10
32296;DHT22;18781;51.550;5.418;2023-06-04T00:39:59;17.00;43.20
32296;DHT22;18781;51.550;5.418;2023-06-04T00:42:24;16.90;43.30
32296;DHT22;18781;51.550;5.418;2023-06-04T00:44:50;16.90;43.40
32296;DHT22;18781;51.550;5.418;2023-06-04T00:47:18;16.90;43.50
32296;DHT22;18781;51.550;5.418;2023-06-04T00:49:45;16.90;43.80
32296;DHT22;18781;51.550;5.418;2023-06-04T00:52:13;16.90;43.50
32296;DHT22;18781;51.550;5.418;2023-06-04T00:54:39;16.80;43.80
32296;DHT22;18781;51.550;5.418;2023-06-04T00:57:05;16.80;43.80
32296;DHT22;18781;51.550;5.418;2023-06-04T00:59:33;16.80;43.90
32296;DHT22;18781;51.550;5.418;2023-06-04T01:02:11;16.80;44.20
32296;DHT22;18781;51.550;5.418;2023-06-04T01:04:58;16.70;44.70
32296;DHT22;18781;51.550;5.418;2023-06-04T01:07:28;16.70;44.60
32296;DHT22;18781;51.550;5.418;2023-06-04T01:09:55;16.70;44.40
32296;DHT22;18781;51.550;5.418;2023-06-04T01:12:20;16.60;44.40
32296;DHT22;18781;51.550;5.418;2023-06-04T01:14:46;16.60;44.40
32296;DHT22;18781;51.550;5.418;2023-06-04T01:22:50;16.50;45.10
32296;DHT22;18781;51.550;5.418;2023-06-04T01:25:25;16.50;45.30
32296;DHT22;18781;51.550;5.418;2023-06-04T01:27:55;16.40;45.40
32296;DHT22;18781;51.550;5.418;2023-06-04T01:30:26;16.40;45.30
32296;DHT22;18781;51.550;5.418;2023-06-04T01:32:56;16.40;45.60
32296;DHT22;18781;51.550;5.418;2023-06-04T01:35:22;16.40;45.60
32296;DHT22;18781;51.550;5.418;2023-06-04T01:37:48;16.40;45.40
32296;DHT22;18781;51.550;5.418;2023-06-04T01:40:14;16.40;45.40
32296;DHT22;18781;51.550;5.418;2023-06-04T01:42:43;16.40;45.50
32296;DHT22;18781;51.550;5.418;2023-06-04T01:45:09;16.40;46.00
32296;DHT22;18781;51.550;5.418;2023-06-04T01:47:35;16.40;45.60
32296;DHT22;18781;51.550;5.418;2023-06-04T01:50:02;16.40;45.60
32296;DHT22;18781;51.550;5.418;2023-06-04T01:52:28;16.40;45.90
32296;DHT22;18781;51.550;5.418;2023-06-04T01:54:54;16.30;45.80
32296;DHT22;18781;51.550;5.418;2023-06-04T01:57:23;16.30;46.00
32296;DHT22;18781;51.550;5.418;2023-06-04T01:59:49;16.20;46.10
32296;DHT22;18781;51.550;5.418;2023-06-04T02:02:16;16.20;46.10
32296;DHT22;18781;51.550;5.418;2023-06-04T02:04:42;16.20;46.10
32296;DHT22;18781;51.550;5.418;2023-06-04T02:07:11;16.20;46.20
32296;DHT22;18781;51.550;5.418;2023-06-04T02:09:39;16.20;46.70
32296;DHT22;18781;51.550;5.418;2023-06-04T02:12:05;16.10;46.30
32296;DHT22;18781;51.550;5.418;2023-06-04T02:14:31;16.10;46.40
32296;DHT22;18781;51.550;5.418;2023-06-04T02:16:57;16.10;46.60
32296;DHT22;18781;51.550;5.418;2023-06-04T02:19:26;16.10;46.50
32296;DHT22;18781;51.550;5.418;2023-06-04T02:21:53;16.00;46.50
32296;DHT22;18781;51.550;5.418;2023-06-04T02:24:19;16.00;46.70
32296;DHT22;18781;51.550;5.418;2023-06-04T02:26:44;16.00;46.80
32296;DHT22;18781;51.550;5.418;2023-06-04T02:29:10;15.90;46.80
32296;DHT22;18781;51.550;5.418;2023-06-04T02:31:36;15.90;47.00
32296;DHT22;18781;51.550;5.418;2023-06-04T02:34:02;15.90;47.00
32296;DHT22;18781;51.550;5.418;2023-06-04T02:36:28;15.80;47.10
32296;DHT22;18781;51.550;5.418;2023-06-04T02:38:54;15.80;47.20
32296;DHT22;18781;51.550;5.418;2023-06-04T02:41:21;15.80;47.30
32296;DHT22;18781;51.550;5.418;2023-06-04T02:43:46;15.80;47.30
32296;DHT22;18781;51.550;5.418;2023-06-04T02:46:12;15.70;47.50
32296;DHT22;18781;51.550;5.418;2023-06-04T02:48:38;15.70;47.50
32296;DHT22;18781;51.550;5.418;2023-06-04T02:51:03;15.70;47.60
32296;DHT22;18781;51.550;5.418;2023-06-04T02:53:30;15.70;47.70
32296;DHT22;18781;51.550;5.418;2023-06-04T02:55:56;15.60;47.70
32296;DHT22;18781;51.550;5.418;2023-06-04T02:58:22;15.60;47.70
32296;DHT22;18781;51.550;5.418;2023-06-04T03:00:52;15.60;47.90
32296;DHT22;18781;51.550;5.418;2023-06-04T03:03:17;15.50;47.90
32296;DHT22;18781;51.550;5.418;2023-06-04T03:05:43;15.50;48.00
32296;DHT22;18781;51.550;5.418;2023-06-04T03:08:08;15.50;48.00
32296;DHT22;18781;51.550;5.418;2023-06-04T03:10:34;15.50;48.20
32296;DHT22;18781;51.550;5.418;2023-06-04T03:12:59;15.50;48.20
32296;DHT22;18781;51.550;5.418;2023-06-04T03:15:25;15.40;48.20
32296;DHT22;18781;51.550;5.418;2023-06-04T03:17:51;15.40;48.20
32296;DHT22;18781;51.550;5.418;2023-06-04T03:20:17;15.40;48.30
32296;DHT22;18781;51.550;5.418;2023-06-04T03:22:42;15.40;48.30
32296;DHT22;18781;51.550;5.418;2023-06-04T03:25:08;15.40;48.40
32296;DHT22;18781;51.550;5.418;2023-06-04T03:27:34;15.30;48.40
32296;DHT22;18781;51.550;5.418;2023-06-04T03:30:00;15.30;48.60
32296;DHT22;18781;51.550;5.418;2023-06-04T03:32:25;15.30;48.60
32296;DHT22;18781;51.550;5.418;2023-06-04T03:34:51;15.30;48.60
32296;DHT22;18781;51.550;5.418;2023-06-04T03:37:17;15.20;48.70
32296;DHT22;18781;51.550;5.418;2023-06-04T03:39:42;15.30;48.80
32296;DHT22;18781;51.550;5.418;2023-06-04T03:42:08;15.20;48.80
32296;DHT22;18781;51.550;5.418;2023-06-04T03:44:34;15.20;48.80
32296;DHT22;18781;51.550;5.418;2023-06-04T03:46:59;15.10;48.80
32296;DHT22;18781;51.550;5.418;2023-06-04T03:49:25;15.10;49.00
32296;DHT22;18781;51.550;5.418;2023-06-04T03:51:51;15.10;49.00
32296;DHT22;18781;51.550;5.418;2023-06-04T03:54:16;15.00;49.00
32296;DHT22;18781;51.550;5.418;2023-06-04T03:56:46;15.00;49.10
32296;DHT22;18781;51.550;5.418;2023-06-04T03:59:12;15.00;49.40
32296;DHT22;18781;51.550;5.418;2023-06-04T04:01:37;15.00;49.30
32296;DHT22;18781;51.550;5.418;2023-06-04T04:04:04;14.90;49.40
32296;DHT22;18781;51.550;5.418;2023-06-04T04:06:30;14.90;49.60
32296;DHT22;18781;51.550;5.418;2023-06-04T04:08:55;14.90;49.70
32296;DHT22;18781;51.550;5.418;2023-06-04T04:11:21;14.80;49.70
32296;DHT22;18781;51.550;5.418;2023-06-04T04:13:48;14.90;49.80
32296;DHT22;18781;51.550;5.418;2023-06-04T04:16:14;14.90;50.10
32296;DHT22;18781;51.550;5.418;2023-06-04T04:18:41;14.90;49.90
32296;DHT22;18781;51.550;5.418;2023-06-04T04:21:08;14.90;50.30
32296;DHT22;18781;51.550;5.418;2023-06-04T04:23:34;14.80;48.80
32296;DHT22;18781;51.550;5.418;2023-06-04T04:26:00;14.80;50.30
32296;DHT22;18781;51.550;5.418;2023-06-04T04:28:27;14.90;50.10
32296;DHT22;18781;51.550;5.418;2023-06-04T04:30:54;14.90;50.10
32296;DHT22;18781;51.550;5.418;2023-06-04T04:33:22;14.90;50.50
32296;DHT22;18781;51.550;5.418;2023-06-04T04:35:50;14.90;50.40
32296;DHT22;18781;51.550;5.418;2023-06-04T04:38:15;14.90;50.40
32296;DHT22;18781;51.550;5.418;2023-06-04T04:40:42;14.90;50.40
32296;DHT22;18781;51.550;5.418;2023-06-04T04:43:08;15.00;50.50
32296;DHT22;18781;51.550;5.418;2023-06-04T04:45:33;15.00;50.40
32296;DHT22;18781;51.550;5.418;2023-06-04T04:47:59;15.00;50.50
32296;DHT22;18781;51.550;5.418;2023-06-04T04:50:24;15.00;50.50
32296;DHT22;18781;51.550;5.418;2023-06-04T04:52:50;15.00;50.70
32296;DHT22;18781;51.550;5.418;2023-06-04T04:55:16;15.00;50.90
32296;DHT22;18781;51.550;5.418;2023-06-04T04:57:44;15.00;50.80
32296;DHT22;18781;51.550;5.418;2023-06-04T05:00:11;15.00;50.80
32296;DHT22;18781;51.550;5.418;2023-06-04T05:02:37;15.00;51.10
32296;DHT22;18781;51.550;5.418;2023-06-04T05:05:03;15.00;51.20
32296;DHT22;18781;51.550;5.418;2023-06-04T05:07:29;15.10;51.10
32296;DHT22;18781;51.550;5.418;2023-06-04T05:09:55;15.10;51.10
32296;DHT22;18781;51.550;5.418;2023-06-04T05:12:20;15.10;51.20
32296;DHT22;18781;51.550;5.418;2023-06-04T05:14:46;15.10;51.20
32296;DHT22;18781;51.550;5.418;2023-06-04T05:17:12;15.20;51.40
32296;DHT22;18781;51.550;5.418;2023-06-04T05:19:38;15.20;51.50
32296;DHT22;18781;51.550;5.418;2023-06-04T05:22:04;15.20;51.60
32296;DHT22;18781;51.550;5.418;2023-06-04T05:24:30;15.30;51.60
32296;DHT22;18781;51.550;5.418;2023-06-04T05:26:56;15.30;51.70
32296;DHT22;18781;51.550;5.418;2023-06-04T05:29:23;15.30;51.60
32296;DHT22;18781;51.550;5.418;2023-06-04T05:31:49;15.30;51.70
32296;DHT22;18781;51.550;5.418;2023-06-04T05:34:15;15.40;51.70
32296;DHT22;18781;51.550;5.418;2023-06-04T05:36:42;15.40;52.00
32296;DHT22;18781;51.550;5.418;2023-06-04T05:39:09;15.50;51.80
32296;DHT22;18781;51.550;5.418;2023-06-04T05:41:35;15.50;51.90
32296;DHT22;18781;51.550;5.418;2023-06-04T05:44:01;15.60;51.90
32296;DHT22;18781;51.550;5.418;2023-06-04T05:46:27;15.60;52.00
32296;DHT22;18781;51.550;5.418;2023-06-04T05:48:53;15.60;52.00
32296;DHT22;18781;51.550;5.418;2023-06-04T05:51:19;15.70;52.10
32296;DHT22;18781;51.550;5.418;2023-06-04T05:53:45;15.70;52.00
32296;DHT22;18781;51.550;5.418;2023-06-04T05:56:11;15.80;52.10
32296;DHT22;18781;51.550;5.418;2023-06-04T05:58:37;15.90;52.00
32296;DHT22;18781;51.550;5.418;2023-06-04T06:01:03;15.90;52.00
32296;DHT22;18781;51.550;5.418;2023-06-04T06:03:28;16.00;51.90
32296;DHT22;18781;51.550;5.418;2023-06-04T06:05:54;16.00;51.80
32296;DHT22;18781;51.550;5.418;2023-06-04T06:08:20;16.10;51.80
32296;DHT22;18781;51.550;5.418;2023-06-04T06:10:46;16.20;51.90
32296;DHT22;18781;51.550;5.418;2023-06-04T06:13:12;16.30;51.80
32296;DHT22;18781;51.550;5.418;2023-06-04T06:15:38;16.30;51.70
32296;DHT22;18781;51.550;5.418;2023-06-04T06:18:04;16.40;51.70
32296;DHT22;18781;51.550;5.418;2023-06-04T06:20:30;16.40;51.50
32296;DHT22;18781;51.550;5.418;2023-06-04T06:22:57;16.50;51.60
32296;DHT22;18781;51.550;5.418;2023-06-04T06:25:23;16.50;51.30
32296;DHT22;18781;51.550;5.418;2023-06-04T06:27:49;16.60;51.50
32296;DHT22;18781;51.550;5.418;2023-06-04T06:30:15;16.60;51.50
32296;DHT22;18781;51.550;5.418;2023-06-04T06:32:41;16.70;51.00
32296;DHT22;18781;51.550;5.418;2023-06-04T06:35:07;16.80;51.00
32296;DHT22;18781;51.550;5.418;2023-06-04T06:37:33;16.90;50.80
32296;DHT22;18781;51.550;5.418;2023-06-04T06:39:58;16.90;50.90
32296;DHT22;18781;51.550;5.418;2023-06-04T06:42:24;17.00;50.80
32296;DHT22;18781;51.550;5.418;2023-06-04T06:44:50;17.00;50.90
32296;DHT22;18781;51.550;5.418;2023-06-04T06:47:16;17.10;50.60
32296;DHT22;18781;51.550;5.418;2023-06-04T06:49:42;17.10;50.70
32296;DHT22;18781;51.550;5.418;2023-06-04T06:52:07;17.20;50.90
32296;DHT22;18781;51.550;5.418;2023-06-04T06:54:33;17.30;50.60
32296;DHT22;18781;51.550;5.418;2023-06-04T06:56:59;17.40;50.50
32296;DHT22;18781;51.550;5.418;2023-06-04T06:59:24;17.50;50.50
32296;DHT22;18781;51.550;5.418;2023-06-04T07:01:50;17.50;50.00
32296;DHT22;18781;51.550;5.418;2023-06-04T07:04:16;17.60;50.20
32296;DHT22;18781;51.550;5.418;2023-06-04T07:06:42;17.60;50.00
32296;DHT22;18781;51.550;5.418;2023-06-04T07:09:08;17.70;49.90
32296;DHT22;18781;51.550;5.418;2023-06-04T07:11:34;17.80;49.90
32296;DHT22;18781;51.550;5.418;2023-06-04T07:14:00;17.90;49.20
32296;DHT22;18781;51.550;5.418;2023-06-04T07:16:28;18.00;48.90
32296;DHT22;18781;51.550;5.418;2023-06-04T07:18:53;18.10;48.50
32296;DHT22;18781;51.550;5.418;2023-06-04T07:21:19;18.10;48.60
32296;DHT22;18781;51.550;5.418;2023-06-04T07:23:46;18.20;48.90
32296;DHT22;18781;51.550;5.418;2023-06-04T07:26:15;18.30;48.40
32296;DHT22;18781;51.550;5.418;2023-06-04T07:28:41;18.40;48.80
32296;DHT22;18781;51.550;5.418;2023-06-04T07:31:07;18.50;48.00
32296;DHT22;18781;51.550;5.418;2023-06-04T07:33:33;18.60;47.40
32296;DHT22;18781;51.550;5.418;2023-06-04T07:35:58;18.70;47.70
32296;DHT22;18781;51.550;5.418;2023-06-04T07:38:24;18.80;46.10
32296;DHT22;18781;51.550;5.418;2023-06-04T07:40:50;18.90;46.40
32296;DHT22;18781;51.550;5.418;2023-06-04T07:43:16;19.00;46.40
32296;DHT22;18781;51.550;5.418;2023-06-04T07:45:41;19.10;46.00
32296;DHT22;18781;51.550;5.418;2023-06-04T07:48:09;19.20;45.20
32296;DHT22;18781;51.550;5.418;2023-06-04T07:50:36;19.30;45.10
32296;DHT22;18781;51.550;5.418;2023-06-04T07:53:01;19.40;44.30
32296;DHT22;18781;51.550;5.418;2023-06-04T07:55:27;19.50;44.10
32296;DHT22;18781;51.550;5.418;2023-06-04T07:57:53;19.60;44.80
32296;DHT22;18781;51.550;5.418;2023-06-04T08:00:18;19.70;44.00
32296;DHT22;18781;51.550;5.418;2023-06-04T08:02:45;19.80;43.40
32296;DHT22;18781;51.550;5.418;2023-06-04T08:05:10;19.90;42.90
32296;DHT22;18781;51.550;5.418;2023-06-04T08:07:39;20.00;42.90
32296;DHT22;18781;51.550;5.418;2023-06-04T08:10:05;20.10;42.70
32296;DHT22;18781;51.550;5.418;2023-06-04T08:12:31;20.20;42.10
32296;DHT22;18781;51.550;5.418;2023-06-04T08:14:57;20.30;42.40
32296;DHT22;18781;51.550;5.418;2023-06-04T08:17:23;20.40;41.90
32296;DHT22;18781;51.550;5.418;2023-06-04T08:19:49;20.50;40.50
32296;DHT22;18781;51.550;5.418;2023-06-04T08:22:14;20.60;41.30
32296;DHT22;18781;51.550;5.418;2023-06-04T08:24:40;20.60;40.50
32296;DHT22;18781;51.550;5.418;2023-06-04T08:27:05;20.70;41.30
32296;DHT22;18781;51.550;5.418;2023-06-04T08:29:34;20.80;40.40
32296;DHT22;18781;51.550;5.418;2023-06-04T08:32:00;21.00;39.60
32296;DHT22;18781;51.550;5.418;2023-06-04T08:34:25;21.00;39.30
32296;DHT22;18781;51.550;5.418;2023-06-04T08:36:51;21.10;40.10
32296;DHT22;18781;51.550;5.418;2023-06-04T08:39:16;21.20;39.30
32296;DHT22;18781;51.550;5.418;2023-06-04T08:41:44;21.30;39.70
32296;DHT22;18781;51.550;5.418;2023-06-04T08:44:10;21.30;39.00
32296;DHT22;18781;51.550;5.418;2023-06-04T08:46:39;21.40;37.30
32296;DHT22;18781;51.550;5.418;2023-06-04T08:49:08;21.60;37.50
32296;DHT22;18781;51.550;5.418;2023-06-04T08:51:36;21.60;38.20
32296;DHT22;18781;51.550;5.418;2023-06-04T08:54:06;21.70;37.00
32296;DHT22;18781;51.550;5.418;2023-06-04T08:56:33;21.80;37.90
32296;DHT22;18781;51.550;5.418;2023-06-04T08:59:02;22.00;36.80
32296;DHT22;18781;51.550;5.418;2023-06-04T09:01:28;22.00;36.60
32296;DHT22;18781;51.550;5.418;2023-06-04T09:03:55;22.10;35.50
32296;DHT22;18781;51.550;5.418;2023-06-04T09:06:26;22.20;35.50
32296;DHT22;18781;51.550;5.418;2023-06-04T09:08:54;22.30;35.50
32296;DHT22;18781;51.550;5.418;2023-06-04T09:11:21;22.40;33.20
32296;DHT22;18781;51.550;5.418;2023-06-04T09:13:48;22.40;33.30
32296;DHT22;18781;51.550;5.418;2023-06-04T09:16:14;22.50;33.80
32296;DHT22;18781;51.550;5.418;2023-06-04T09:18:40;22.60;34.00
32296;DHT22;18781;51.550;5.418;2023-06-04T09:21:07;22.70;32.80
32296;DHT22;18781;51.550;5.418;2023-06-04T09:23:48;22.70;33.40
32296;DHT22;18781;51.550;5.418;2023-06-04T09:26:14;22.90;33.40
32296;DHT22;18781;51.550;5.418;2023-06-04T09:28:42;23.00;32.60
32296;DHT22;18781;51.550;5.418;2023-06-04T09:31:09;23.00;31.70
32296;DHT22;18781;51.550;5.418;2023-06-04T09:33:50;23.00;32.70
32296;DHT22;18781;51.550;5.418;2023-06-04T09:36:16;23.10;32.00
32296;DHT22;18781;51.550;5.418;2023-06-04T09:38:42;23.20;32.10
32296;DHT22;18781;51.550;5.418;2023-06-04T09:41:12;23.20;31.90
32296;DHT22;18781;51.550;5.418;2023-06-04T09:43:38;23.30;32.80
32296;DHT22;18781;51.550;5.418;2023-06-04T09:46:11;23.40;32.00
32296;DHT22;18781;51.550;5.418;2023-06-04T09:48:37;23.50;33.00
32296;DHT22;18781;51.550;5.418;2023-06-04T09:51:21;23.50;32.20
32296;DHT22;18781;51.550;5.418;2023-06-04T09:53:57;23.70;32.70
32296;DHT22;18781;51.550;5.418;2023-06-04T09:56:23;23.70;32.30
32296;DHT22;18781;51.550;5.418;2023-06-04T09:58:49;23.80;31.70
32296;DHT22;18781;51.550;5.418;2023-06-04T10:01:19;23.90;31.70
32296;DHT22;18781;51.550;5.418;2023-06-04T10:03:47;24.00;31.40
32296;DHT22;18781;51.550;5.418;2023-06-04T10:06:15;24.00;32.00
32296;DHT22;18781;51.550;5.418;2023-06-04T10:08:43;24.10;31.80
32296;DHT22;18781;51.550;5.418;2023-06-04T10:11:11;24.20;32.00
32296;DHT22;18781;51.550;5.418;2023-06-04T10:16:51;24.20;31.50
32296;DHT22;18781;51.550;5.418;2023-06-04T10:19:18;24.30;31.20
32296;DHT22;18781;51.550;5.418;2023-06-04T10:21:44;24.30;31.20
32296;DHT22;18781;51.550;5.418;2023-06-04T10:24:12;24.40;31.70
32296;DHT22;18781;51.550;5.418;2023-06-04T10:26:39;24.40;31.20
32296;DHT22;18781;51.550;5.418;2023-06-04T10:29:05;24.50;31.10
32296;DHT22;18781;51.550;5.418;2023-06-04T10:31:32;24.60;29.70
32296;DHT22;18781;51.550;5.418;2023-06-04T10:33:58;24.70;30.50
32296;DHT22;18781;51.550;5.418;2023-06-04T10:36:24;24.70;30.00
32296;DHT22;18781;51.550;5.418;2023-06-04T10:38:55;24.70;30.60
32296;DHT22;18781;51.550;5.418;2023-06-04T10:41:22;24.80;30.40
32296;DHT22;18781;51.550;5.418;2023-06-04T10:43:59;24.90;30.10
32296;DHT22;18781;51.550;5.418;2023-06-04T10:46:25;25.00;29.00
32296;DHT22;18781;51.550;5.418;2023-06-04T10:48:54;25.00;29.20
32296;DHT22;18781;51.550;5.418;2023-06-04T10:51:33;25.00;29.80
32296;DHT22;18781;51.550;5.418;2023-06-04T10:54:00;25.00;30.30
32296;DHT22;18781;51.550;5.418;2023-06-04T10:56:27;25.00;29.70
32296;DHT22;18781;51.550;5.418;2023-06-04T10:58:53;25.10;29.90
32296;DHT22;18781;51.550;5.418;2023-06-04T11:01:26;25.10;30.20
32296;DHT22;18781;51.550;5.418;2023-06-04T11:03:52;25.20;29.60
32296;DHT22;18781;51.550;5.418;2023-06-04T11:06:18;25.30;29.40
32296;DHT22;18781;51.550;5.418;2023-06-04T11:08:44;25.30;29.90
32296;DHT22;18781;51.550;5.418;2023-06-04T11:11:14;25.30;29.90
32296;DHT22;18781;51.550;5.418;2023-06-04T11:13:41;25.40;29.90
32296;DHT22;18781;51.550;5.418;2023-06-04T11:16:20;25.40;30.40
32296;DHT22;18781;51.550;5.418;2023-06-04T11:18:56;25.50;29.70
32296;DHT22;18781;51.550;5.418;2023-06-04T11:21:22;25.50;29.70
32296;DHT22;18781;51.550;5.418;2023-06-04T11:23:48;25.60;29.40
32296;DHT22;18781;51.550;5.418;2023-06-04T11:26:13;25.60;28.50
32296;DHT22;18781;51.550;5.418;2023-06-04T11:28:39;25.60;29.20
32296;DHT22;18781;51.550;5.418;2023-06-04T11:31:08;25.60;29.20
32296;DHT22;18781;51.550;5.418;2023-06-04T11:33:47;25.60;29.00
32296;DHT22;18781;51.550;5.418;2023-06-04T11:36:28;25.60;29.90
32296;DHT22;18781;51.550;5.418;2023-06-04T11:39:02;25.70;29.20
32296;DHT22;18781;51.550;5.418;2023-06-04T11:41:29;25.70;29.70
32296;DHT22;18781;51.550;5.418;2023-06-04T11:43:56;25.80;29.30
32296;DHT22;18781;51.550;5.418;2023-06-04T11:46:22;25.80;29.50
32296;DHT22;18781;51.550;5.418;2023-06-04T11:48:51;25.90;29.40
32296;DHT22;18781;51.550;5.418;2023-06-04T11:51:17;25.90;29.40
32296;DHT22;18781;51.550;5.418;2023-06-04T11:53:43;25.90;29.80
32296;DHT22;18781;51.550;5.418;2023-06-04T11:56:08;26.00;30.00
32296;DHT22;18781;51.550;5.418;2023-06-04T11:58:34;26.10;30.20
32296;DHT22;18781;51.550;5.418;2023-06-04T12:01:00;26.20;29.70
32296;DHT22;18781;51.550;5.418;2023-06-04T12:03:40;26.30;29.50
32296;DHT22;18781;51.550;5.418;2023-06-04T12:06:13;26.30;29.90
32296;DHT22;18781;51.550;5.418;2023-06-04T12:11:33;26.40;30.10
32296;DHT22;18781;51.550;5.418;2023-06-04T12:14:04;26.40;30.00
32296;DHT22;18781;51.550;5.418;2023-06-04T12:16:30;26.40;29.60
32296;DHT22;18781;51.550;5.418;2023-06-04T12:19:10;26.50;29.80
32296;DHT22;18781;51.550;5.418;2023-06-04T12:21:36;26.50;30.40
32296;DHT22;18781;51.550;5.418;2023-06-04T12:24:14;26.60;30.30
32296;DHT22;18781;51.550;5.418;2023-06-04T12:26:41;26.70;30.60
32296;DHT22;18781;51.550;5.418;2023-06-04T12:29:17;26.70;29.70
32296;DHT22;18781;51.550;5.418;2023-06-04T12:31:44;26.70;29.40
32296;DHT22;18781;51.550;5.418;2023-06-04T12:34:13;26.70;29.50
32296;DHT22;18781;51.550;5.418;2023-06-04T12:36:39;26.80;29.70
32296;DHT22;18781;51.550;5.418;2023-06-04T12:39:06;26.80;29.10
32296;DHT22;18781;51.550;5.418;2023-06-04T12:41:32;26.80;29.60
32296;DHT22;18781;51.550;5.418;2023-06-04T12:43:59;26.80;29.70
32296;DHT22;18781;51.550;5.418;2023-06-04T12:46:27;26.90;29.40
32296;DHT22;18781;51.550;5.418;2023-06-04T12:48:54;26.90;28.90
32296;DHT22;18781;51.550;5.418;2023-06-04T12:51:20;26.90;29.40
32296;DHT22;18781;51.550;5.418;2023-06-04T12:53:47;27.00;29.80
32296;DHT22;18781;51.550;5.418;2023-06-04T12:56:13;27.00;28.90
32296;DHT22;18781;51.550;5.418;2023-06-04T12:58:38;27.00;29.60
32296;DHT22;18781;51.550;5.418;2023-06-04T13:01:04;27.00;29.80
32296;DHT22;18781;51.550;5.418;2023-06-04T13:03:31;27.00;29.30
32296;DHT22;18781;51.550;5.418;2023-06-04T13:05:57;27.10;29.50
32296;DHT22;18781;51.550;5.418;2023-06-04T13:08:23;27.10;29.30
32296;DHT22;18781;51.550;5.418;2023-06-04T13:10:50;27.10;28.90
32296;DHT22;18781;51.550;5.418;2023-06-04T13:13:17;27.10;28.50
32296;DHT22;18781;51.550;5.418;2023-06-04T13:15:43;27.00;28.50
32296;DHT22;18781;51.550;5.418;2023-06-04T13:18:09;27.10;29.00
32296;DHT22;18781;51.550;5.418;2023-06-04T13:20:36;27.00;29.30
32296;DHT22;18781;51.550;5.418;2023-06-04T13:23:01;27.10;29.10
32296;DHT22;18781;51.550;5.418;2023-06-04T13:25:27;27.10;29.10
32296;DHT22;18781;51.550;5.418;2023-06-04T13:27:54;27.10;28.30
32296;DHT22;18781;51.550;5.418;2023-06-04T13:30:20;27.10;28.90
32296;DHT22;18781;51.550;5.418;2023-06-04T13:32:46;27.10;28.50
32296;DHT22;18781;51.550;5.418;2023-06-04T13:35:12;27.10;28.70
32296;DHT22;18781;51.550;5.418;2023-06-04T13:37:37;27.10;28.50
32296;DHT22;18781;51.550;5.418;2023-06-04T13:40:03;27.10;29.10
32296;DHT22;18781;51.550;5.418;2023-06-04T13:42:29;27.10;29.40
32296;DHT22;18781;51.550;5.418;2023-06-04T13:44:55;27.20;28.80
32296;DHT22;18781;51.550;5.418;2023-06-04T13:47:20;27.20;29.20
32296;DHT22;18781;51.550;5.418;2023-06-04T13:49:47;27.20;29.30
32296;DHT22;18781;51.550;5.418;2023-06-04T13:52:12;27.30;29.00
32296;DHT22;18781;51.550;5.418;2023-06-04T13:54:38;27.30;28.80
32296;DHT22;18781;51.550;5.418;2023-06-04T13:57:04;27.40;28.90
32296;DHT22;18781;51.550;5.418;2023-06-04T13:59:30;27.40;28.40
32296;DHT22;18781;51.550;5.418;2023-06-04T14:01:56;27.40;28.60
32296;DHT22;18781;51.550;5.418;2023-06-04T14:04:22;27.40;29.10
32296;DHT22;18781;51.550;5.418;2023-06-04T14:06:48;27.40;29.10
32296;DHT22;18781;51.550;5.418;2023-06-04T14:09:13;27.50;28.70
32296;DHT22;18781;51.550;5.418;2023-06-04T14:11:39;27.50;28.60
32296;DHT22;18781;51.550;5.418;2023-06-04T14:14:05;27.50;28.80
32296;DHT22;18781;51.550;5.418;2023-06-04T14:16:31;27.60;28.60
32296;DHT22;18781;51.550;5.418;2023-06-04T14:18:56;27.60;28.60
32296;DHT22;18781;51.550;5.418;2023-06-04T14:21:22;27.60;28.60
32296;DHT22;18781;51.550;5.418;2023-06-04T14:23:48;27.60;28.20
32296;DHT22;18781;51.550;5.418;2023-06-04T14:26:15;27.60;28.90
32296;DHT22;18781;51.550;5.418;2023-06-04T14:28:43;27.60;29.00
32296;DHT22;18781;51.550;5.418;2023-06-04T14:31:09;27.60;29.40
32296;DHT22;18781;51.550;5.418;2023-06-04T14:33:34;27.60;28.40
32296;DHT22;18781;51.550;5.418;2023-06-04T14:36:03;27.60;28.50
32296;DHT22;18781;51.550;5.418;2023-06-04T14:38:28;27.60;28.40
32296;DHT22;18781;51.550;5.418;2023-06-04T14:40:54;27.60;28.80
32296;DHT22;18781;51.550;5.418;2023-06-04T14:43:22;27.60;28.80
32296;DHT22;18781;51.550;5.418;2023-06-04T14:45:47;27.60;28.80
32296;DHT22;18781;51.550;5.418;2023-06-04T14:48:13;27.60;28.80
32296;DHT22;18781;51.550;5.418;2023-06-04T14:50:38;27.70;28.90
32296;DHT22;18781;51.550;5.418;2023-06-04T14:53:04;27.70;29.00
32296;DHT22;18781;51.550;5.418;2023-06-04T14:55:33;27.80;29.00
32296;DHT22;18781;51.550;5.418;2023-06-04T14:57:59;27.70;28.50
32296;DHT22;18781;51.550;5.418;2023-06-04T15:00:24;27.70;28.70
32296;DHT22;18781;51.550;5.418;2023-06-04T15:02:50;27.80;29.10
32296;DHT22;18781;51.550;5.418;2023-06-04T15:05:16;27.80;28.50
32296;DHT22;18781;51.550;5.418;2023-06-04T15:07:41;27.80;28.40
32296;DHT22;18781;51.550;5.418;2023-06-04T15:10:07;27.80;28.50
32296;DHT22;18781;51.550;5.418;2023-06-04T15:12:34;27.80;28.50
32296;DHT22;18781;51.550;5.418;2023-06-04T15:15:01;27.80;28.70
32296;DHT22;18781;51.550;5.418;2023-06-04T15:17:27;27.80;28.80
32296;DHT22;18781;51.550;5.418;2023-06-04T15:19:52;27.80;28.70
32296;DHT22;18781;51.550;5.418;2023-06-04T15:22:18;27.90;29.00
32296;DHT22;18781;51.550;5.418;2023-06-04T15:24:43;27.80;28.70
32296;DHT22;18781;51.550;5.418;2023-06-04T15:27:09;27.80;29.10
32296;DHT22;18781;51.550;5.418;2023-06-04T15:29:35;27.90;29.10
32296;DHT22;18781;51.550;5.418;2023-06-04T15:32:00;27.90;29.20
32296;DHT22;18781;51.550;5.418;2023-06-04T15:34:26;27.90;28.90
32296;DHT22;18781;51.550;5.418;2023-06-04T15:36:51;27.90;28.50
32296;DHT22;18781;51.550;5.418;2023-06-04T15:39:17;27.80;28.80